createdAt,value
2023-03-15T00:01:12.593Z,0
2023-03-15T00:06:14.329Z,0
2023-03-15T00:11:16.172Z,0
2023-03-15T00:16:18.026Z,0
2023-03-15T00:21:19.839Z,0.88715
2023-03-15T00:26:21.663Z,0
2023-03-15T00:31:23.671Z,0
2023-03-15T00:36:25.488Z,0
2023-03-15T00:41:27.341Z,0
2023-03-15T00:46:29.125Z,0
2023-03-15T00:51:30.914Z,0
2023-03-15T00:56:32.412Z,0
2023-03-15T01:01:34.180Z,0
2023-03-15T01:06:36.183Z,0.88715
2023-03-15T01:11:37.973Z,0
2023-03-15T01:16:39.708Z,0
2023-03-15T01:21:41.423Z,0
2023-03-15T01:26:43.155Z,0
2023-03-15T01:31:44.819Z,0
2023-03-15T01:36:46.519Z,0
2023-03-15T01:41:48.287Z,0
2023-03-15T01:46:49.841Z,0
2023-03-15T01:51:51.642Z,0
2023-03-15T01:56:53.467Z,0
2023-03-15T02:01:55.363Z,0
2023-03-15T02:06:57.108Z,0
2023-03-15T02:11:58.864Z,0
2023-03-15T02:17:00.601Z,0
2023-03-15T02:22:02.130Z,0
2023-03-15T02:27:04.054Z,0.88715
2023-03-15T02:32:05.898Z,0.88715
2023-03-15T02:37:07.444Z,0
2023-03-15T02:42:09.154Z,0
2023-03-15T02:47:10.799Z,0
2023-03-15T02:52:12.467Z,0
2023-03-15T02:57:14.339Z,0
2023-03-15T03:02:16.033Z,0.88715
2023-03-15T03:07:17.837Z,0
2023-03-15T03:12:19.610Z,0
2023-03-15T03:17:21.370Z,0
2023-03-15T03:22:23.087Z,0
2023-03-15T03:27:24.957Z,0
2023-03-15T03:32:26.785Z,0
2023-03-15T03:37:28.560Z,0.88715
2023-03-15T03:42:30.484Z,0.88715
2023-03-15T03:47:32.235Z,1.16185
2023-03-15T03:52:33.970Z,0.47405
2023-03-15T03:57:35.767Z,3.85445
2023-03-15T04:02:37.649Z,4.0295
2023-03-15T04:07:39.567Z,6.87385
2023-03-15T04:12:41.359Z,16.8934
2023-03-15T04:17:43.138Z,30.8356
2023-03-15T04:22:44.884Z,42.39895
2023-03-15T04:27:46.842Z,56.82035
2023-03-15T04:32:48.660Z,68.0148
2023-03-15T04:37:50.437Z,89.6659
2023-03-15T04:42:52.263Z,109.6018
2023-03-15T04:47:54.145Z,129.00335
2023-03-15T04:52:55.865Z,146.98445
2023-03-15T04:57:57.634Z,179.849
2023-03-15T05:02:59.306Z,212.1602
2023-03-15T05:08:01.061Z,214.0047
2023-03-15T05:13:02.570Z,210.9432
2023-03-15T05:18:04.121Z,212.34465
2023-03-15T05:23:05.596Z,209.4296
2023-03-15T05:28:07.156Z,210.33285
2023-03-15T05:33:08.685Z,267.7997
2023-03-15T05:38:10.115Z,335.6699
2023-03-15T05:43:11.697Z,370.26865
2023-03-15T05:48:13.172Z,403.852
2023-03-15T05:53:14.675Z,422.8865
2023-03-15T05:58:16.189Z,442.8604
2023-03-15T06:03:17.794Z,413.42255
2023-03-15T06:08:19.475Z,413.4244
2023-03-15T06:13:21.504Z,397.8773
2023-03-15T06:18:22.963Z,343.2305
2023-03-15T06:23:24.631Z,339.48635
2023-03-15T06:28:26.449Z,363.4783
2023-03-15T06:33:28.080Z,472.9049
2023-03-15T06:38:29.701Z,525.285
2023-03-15T06:43:31.443Z,522.31665
2023-03-15T06:48:33.101Z,539.2842
2023-03-15T06:53:34.869Z,538.39995
2023-03-15T06:58:36.577Z,549.92715
2023-03-15T07:03:38.312Z,561.34405
2023-03-15T07:08:40.171Z,566.87755
2023-03-15T07:13:41.992Z,569.1841
2023-03-15T07:18:43.772Z,574.53315
2023-03-15T07:23:45.659Z,572.063
2023-03-15T07:28:47.450Z,567.50875
2023-03-15T07:33:49.185Z,613.06235
2023-03-15T07:38:50.975Z,592.2422
2023-03-15T07:43:52.816Z,598.5135
2023-03-15T07:48:54.596Z,601.31825
2023-03-15T07:53:56.336Z,626.0137
2023-03-15T07:58:58.198Z,634.52795
2023-03-15T08:03:59.857Z,644.1866
2023-03-15T08:09:01.679Z,663.3861
2023-03-15T08:14:03.115Z,719.85825
2023-03-15T08:19:04.681Z,767.4416
2023-03-15T08:24:06.149Z,809.92915
2023-03-15T08:29:07.698Z,529.0236
2023-03-15T08:34:09.178Z,542.73965
2023-03-15T08:39:10.655Z,817.8695
2023-03-15T08:44:12.176Z,867.7049
2023-03-15T08:49:13.668Z,870.96425
2023-03-15T08:54:15.122Z,894.4895
2023-03-15T08:59:25.549Z,563.44765
2023-03-15T09:04:32.786Z,941.06535
2023-03-15T09:09:34.374Z,578.59155
2023-03-15T09:14:36.214Z,588.97405
2023-03-15T09:19:37.974Z,1037.89185
2023-03-15T09:24:39.664Z,1111.3712
2023-03-15T09:29:41.394Z,1152.31785
2023-03-15T09:34:43.550Z,1199.60495
2023-03-15T09:39:45.289Z,1202.9827
2023-03-15T09:44:47.063Z,1279.1869
2023-03-15T09:49:48.844Z,1308.3415
2023-03-15T09:54:50.641Z,657.33455
2023-03-15T09:59:52.097Z,690.2867
2023-03-15T10:04:53.922Z,650.58035
2023-03-15T10:09:55.699Z,600.85485
2023-03-15T10:14:57.621Z,558.36275
2023-03-15T10:19:59.422Z,707.2334
2023-03-15T10:25:01.481Z,1338.0308
2023-03-15T10:30:03.190Z,1361.14145
2023-03-15T10:35:04.719Z,1383.1851
2023-03-15T10:40:06.443Z,1395.80665
2023-03-15T10:45:08.377Z,1423.65745
2023-03-15T10:50:10.151Z,1466.0858
2023-03-15T10:55:11.913Z,915.3885
2023-03-15T11:00:13.726Z,788.09665
2023-03-15T11:05:15.667Z,603.66145
2023-03-15T11:10:17.413Z,634.6398
2023-03-15T11:15:19.474Z,1471.59765
2023-03-15T11:20:20.951Z,1470.394
2023-03-15T11:25:24.936Z,1467.03775
2023-03-15T11:30:26.602Z,1589.99225
2023-03-15T11:35:28.561Z,1499.36425
2023-03-15T11:40:30.365Z,1640.5223
2023-03-15T11:45:32.069Z,1579.88365
2023-03-15T11:50:33.862Z,1690.64915
2023-03-15T11:55:35.647Z,1303.66415
2023-03-15T12:00:37.400Z,563.98755
2023-03-15T12:05:39.287Z,580.08615
2023-03-15T12:10:41.034Z,644.09635
2023-03-15T12:15:42.929Z,1621.50125
2023-03-15T12:20:44.698Z,1711.2983
2023-03-15T12:25:54.783Z,1729.88975
2023-03-15T12:30:57.342Z,667.44735
2023-03-15T12:35:59.178Z,578.4984
2023-03-15T12:41:00.984Z,521.8245
2023-03-15T12:46:02.892Z,488.3686
2023-03-15T12:51:04.566Z,574.06975
2023-03-15T12:56:08.772Z,1922.06125
2023-03-15T13:01:11.114Z,1774.3923
2023-03-15T13:06:12.639Z,1822.7831
2023-03-15T13:11:14.349Z,1732.7103
2023-03-15T13:16:15.864Z,1913.7916
2023-03-15T13:21:17.463Z,1848.9486
2023-03-15T13:26:19.110Z,1811.6211
2023-03-15T13:31:20.863Z,1905.52565
2023-03-15T13:36:22.622Z,1941.0638
2023-03-15T13:41:24.298Z,1872.34735
2023-03-15T13:51:36.408Z,1922.4515
2023-03-15T13:56:48.765Z,1865.7586
2023-03-15T14:01:51.137Z,1868.6148
2023-03-15T14:06:52.666Z,1824.7574
2023-03-15T14:11:54.160Z,1834.1815
2023-03-15T14:17:05.319Z,1794.06825
2023-03-15T14:22:07.550Z,1640.0177
2023-03-15T14:27:09.020Z,1421.24975
2023-03-15T14:32:11.349Z,1216.6103
2023-03-15T14:37:12.923Z,1291.4136
2023-03-15T14:42:14.492Z,1471.0457
2023-03-15T14:47:16.171Z,929.4605
2023-03-15T14:52:17.840Z,353.8716
2023-03-15T14:57:19.599Z,316.8027
2023-03-15T15:02:21.779Z,296.3876
2023-03-15T15:07:23.600Z,282.0955
2023-03-15T15:12:25.376Z,295.63265
2023-03-15T15:17:27.012Z,320.27295
2023-03-15T15:22:28.772Z,339.5832
2023-03-15T15:27:30.849Z,319.4077
2023-03-15T15:32:32.789Z,267.08645
2023-03-15T15:37:34.591Z,228.8367
2023-03-15T15:42:36.366Z,202.1693
2023-03-15T15:47:38.163Z,174.06245
2023-03-15T15:52:39.715Z,142.34075
2023-03-15T15:57:43.467Z,122.6806
2023-03-15T16:02:45.288Z,97.15605
2023-03-15T16:07:47.078Z,72.0004
2023-03-15T16:12:48.878Z,50.3303
2023-03-15T16:17:50.611Z,30.55985
2023-03-15T16:22:52.467Z,19.1068
2023-03-15T16:27:54.232Z,11.7478
2023-03-15T16:32:56.086Z,4.59225
2023-03-15T16:37:57.872Z,3.85445
2023-03-15T16:42:59.990Z,0.4148
2023-03-15T16:48:01.831Z,0.88715
2023-03-15T16:53:03.584Z,0.88715
2023-03-15T16:58:05.154Z,0.88715
2023-03-15T17:03:06.799Z,0.88715
2023-03-15T17:08:08.418Z,0.88715
2023-03-15T17:13:10.141Z,0.88715
2023-03-15T17:18:11.808Z,0
2023-03-15T17:23:13.284Z,0
2023-03-15T17:28:14.869Z,0.88715
2023-03-15T17:33:16.387Z,0
2023-03-15T17:38:18.004Z,0
2023-03-15T17:43:19.702Z,0
2023-03-15T17:48:21.545Z,0
2023-03-15T17:53:23.185Z,0
2023-03-15T17:58:24.871Z,0
2023-03-15T18:03:26.501Z,0
2023-03-15T18:08:28.263Z,0
2023-03-15T18:13:29.893Z,0
2023-03-15T18:18:31.643Z,0
2023-03-15T18:23:33.367Z,0
2023-03-15T18:28:35.186Z,0.88715
2023-03-15T18:33:37.036Z,0
2023-03-15T18:38:39.062Z,0
2023-03-15T18:43:40.856Z,0
2023-03-15T18:48:42.592Z,0
2023-03-15T18:53:44.396Z,0
2023-03-15T18:58:46.198Z,0
2023-03-15T19:03:48.008Z,0
2023-03-15T19:08:49.840Z,0
2023-03-15T19:13:51.665Z,0
2023-03-15T19:18:53.418Z,0
2023-03-15T19:23:57.147Z,0.88715
2023-03-15T19:28:59.980Z,0
2023-03-15T19:34:01.747Z,0
2023-03-15T19:39:03.513Z,0
2023-03-15T19:44:05.285Z,0.88715
2023-03-15T19:49:06.788Z,0
2023-03-15T19:54:08.269Z,0.88715
2023-03-15T19:59:09.801Z,0.88715
2023-03-15T20:04:11.576Z,0
2023-03-15T20:09:13.105Z,0
2023-03-15T20:14:14.563Z,0
2023-03-15T20:19:16.066Z,0
2023-03-15T20:24:17.669Z,0
2023-03-15T20:29:19.109Z,0
2023-03-15T20:34:20.634Z,0
2023-03-15T20:39:22.107Z,0
2023-03-15T20:44:23.566Z,0
2023-03-15T20:49:25.905Z,0
2023-03-15T20:54:28.538Z,0
2023-03-15T20:59:30.001Z,0
2023-03-15T21:04:31.732Z,0
2023-03-15T21:09:33.453Z,0
2023-03-15T21:14:35.056Z,0
2023-03-15T21:19:36.563Z,0
2023-03-15T21:24:49.416Z,0
2023-03-15T21:29:56.529Z,0
2023-03-15T21:34:58.051Z,0
2023-03-15T21:39:59.482Z,0
2023-03-15T21:45:01.032Z,0
2023-03-15T21:50:02.511Z,0
2023-03-15T21:55:03.991Z,0
2023-03-15T22:00:05.490Z,0
2023-03-15T22:05:07.142Z,0
2023-03-15T22:10:08.622Z,0
2023-03-15T22:15:10.124Z,0
2023-03-15T22:20:11.595Z,0
2023-03-15T22:25:13.089Z,0
2023-03-15T22:30:14.855Z,0
2023-03-15T22:35:16.406Z,0
2023-03-15T22:40:17.939Z,0
2023-03-15T22:45:19.424Z,0
2023-03-15T22:50:20.870Z,0
2023-03-15T22:55:22.330Z,0
2023-03-15T23:00:24.309Z,0
2023-03-15T23:05:25.977Z,0
2023-03-15T23:10:27.980Z,0
2023-03-15T23:15:29.642Z,0
2023-03-15T23:20:31.220Z,0
2023-03-15T23:25:32.665Z,0
2023-03-15T23:30:35.878Z,0
2023-03-15T23:35:37.887Z,0
2023-03-15T23:40:39.441Z,0
2023-03-15T23:45:41.007Z,0
2023-03-15T23:50:42.745Z,0
2023-03-15T23:55:44.210Z,0
